Time;durP1;ratioP1;P1;durP2;ratioP2;P2;SDS_P1;SDS_P2;PMS_P1;PMS_P2;Temp;Humidity;BMP_temperature;BMP_pressure;BME280_temperature;BME280_humidity;BME280_pressure;Samples;Min_cycle;Max_cycle;Signal;HPM_P1;HPM_P2
2022/07/12 00:00:08;;;;;;;3.40;3.10;;;;;;;;;;5092989;28;20567;-66
2022/07/12 00:02:34;;;;;;;3.20;2.90;;;;;;;;;;5096576;28;20084;-66
2022/07/12 00:05:01;;;;;;;3.65;2.63;;;;;;;;;;5088784;28;20139;-67
2022/07/12 00:07:27;;;;;;;3.08;2.78;;;;;;;;;;5094481;28;20151;-67
2022/07/12 00:09:53;;;;;;;2.85;2.65;;;;;;;;;;5092242;28;20052;-66
2022/07/12 00:12:20;;;;;;;3.20;3.00;;;;;;;;;;5093066;28;20068;-66
2022/07/12 00:14:46;;;;;;;3.20;2.92;;;;;;;;;;5106378;28;20048;-66
2022/07/12 00:17:13;;;;;;;3.20;2.90;;;;;;;;;;5096627;28;20048;-66
2022/07/12 00:19:39;;;;;;;3.20;2.88;;;;;;;;;;5092475;28;20147;-66
2022/07/12 00:22:05;;;;;;;5.43;3.10;;;;;;;;;;5092882;28;20495;-66
2022/07/12 00:24:32;;;;;;;4.80;2.80;;;;;;;;;;5078095;28;20096;-66
2022/07/12 00:26:58;;;;;;;4.03;2.72;;;;;;;;;;5093760;28;20052;-67
2022/07/12 00:29:24;;;;;;;5.32;3.20;;;;;;;;;;5092634;28;20059;-66
2022/07/12 00:31:50;;;;;;;3.50;3.17;;;;;;;;;;5093317;28;20054;-67
2022/07/12 00:34:17;;;;;;;4.00;3.53;;;;;;;;;;5093319;28;20068;-66
2022/07/12 00:36:43;;;;;;;5.93;3.78;;;;;;;;;;5093136;28;20051;-66
2022/07/12 00:39:09;;;;;;;5.57;3.47;;;;;;;;;;5095888;28;20057;-66
2022/07/12 00:41:36;;;;;;;6.70;4.10;;;;;;;;;;5090646;28;20057;-67
2022/07/12 00:44:02;;;;;;;3.80;3.50;;;;;;;;;;5091904;28;20114;-66
2022/07/12 00:46:29;;;;;;;5.25;3.50;;;;;;;;;;5106586;27;20475;-66
2022/07/12 00:48:55;;;;;;;3.90;3.45;;;;;;;;;;5092775;28;20053;-66
2022/07/12 00:51:22;;;;;;;3.65;3.35;;;;;;;;;;5092541;28;20095;-67
2022/07/12 00:53:50;;;;;;;5.03;4.30;;;;;;;;;;5093140;28;20052;-66
2022/07/12 00:56:16;;;;;;;5.32;3.83;;;;;;;;;;5089027;28;20053;-67
2022/07/12 00:58:43;;;;;;;3.97;3.58;;;;;;;;;;5091966;28;20057;-66
2022/07/12 01:01:10;;;;;;;4.25;3.63;;;;;;;;;;5095919;28;20052;-67
2022/07/12 01:03:36;;;;;;;5.65;4.07;;;;;;;;;;5088768;28;20053;-67
2022/07/12 01:06:02;;;;;;;4.90;3.83;;;;;;;;;;5100706;28;20136;-67
2022/07/12 01:08:30;;;;;;;4.57;4.03;;;;;;;;;;5092425;28;20529;-66
2022/07/12 01:10:56;;;;;;;5.03;3.78;;;;;;;;;;5092470;28;20048;-66
2022/07/12 01:13:23;;;;;;;4.25;3.78;;;;;;;;;;5092003;28;20055;-66
2022/07/12 01:15:51;;;;;;;4.60;3.92;;;;;;;;;;5099727;28;20062;-67
2022/07/12 01:18:18;;;;;;;6.28;3.85;;;;;;;;;;5104893;27;20139;-66
2022/07/12 01:20:45;;;;;;;6.47;3.83;;;;;;;;;;5092154;28;20057;-65
2022/07/12 01:23:12;;;;;;;4.45;3.70;;;;;;;;;;5091227;28;21034;-65
2022/07/12 01:25:39;;;;;;;6.38;3.97;;;;;;;;;;5091994;28;20131;-67
2022/07/12 01:28:05;;;;;;;4.35;3.95;;;;;;;;;;5092301;28;20059;-67
2022/07/12 01:30:31;;;;;;;3.97;3.58;;;;;;;;;;5091717;28;20055;-66
2022/07/12 01:32:59;;;;;;;4.00;3.70;;;;;;;;;;5083611;28;20084;-66
2022/07/12 01:35:25;;;;;;;4.65;3.78;;;;;;;;;;5079299;28;20518;-66
2022/07/12 01:37:51;;;;;;;4.30;3.90;;;;;;;;;;5085604;28;20044;-67
2022/07/12 01:40:18;;;;;;;4.10;3.78;;;;;;;;;;5086919;28;20067;-66
2022/07/12 01:42:44;;;;;;;4.25;3.85;;;;;;;;;;5086681;28;20454;-66
2022/07/12 01:45:11;;;;;;;3.83;3.53;;;;;;;;;;5095891;28;20048;-66
2022/07/12 01:47:38;;;;;;;4.38;3.97;;;;;;;;;;5076880;28;20516;-66
2022/07/12 01:50:06;;;;;;;4.75;4.20;;;;;;;;;;5085822;28;20135;-65
2022/07/12 01:52:32;;;;;;;5.10;4.15;;;;;;;;;;5087903;28;20055;-66
2022/07/12 01:54:59;;;;;;;4.40;4.00;;;;;;;;;;5087588;28;20146;-66
2022/07/12 01:57:25;;;;;;;5.32;3.47;;;;;;;;;;5092281;28;20049;-66
2022/07/12 01:59:52;;;;;;;5.82;3.80;;;;;;;;;;5099464;27;20525;-67
2022/07/12 02:02:18;;;;;;;4.97;4.05;;;;;;;;;;5091230;28;20044;-67
2022/07/12 02:04:45;;;;;;;4.55;4.05;;;;;;;;;;5091887;28;20048;-66
2022/07/12 02:07:12;;;;;;;4.78;4.32;;;;;;;;;;5083365;28;20574;-66
2022/07/12 02:09:38;;;;;;;6.38;4.13;;;;;;;;;;5087708;28;20562;-66
2022/07/12 02:12:04;;;;;;;6.88;4.22;;;;;;;;;;5089881;28;20053;-66
2022/07/12 02:14:31;;;;;;;5.85;4.60;;;;;;;;;;5090908;28;20143;-66
2022/07/12 02:16:57;;;;;;;4.13;3.83;;;;;;;;;;5091095;28;20127;-66
2022/07/12 02:19:24;;;;;;;5.15;4.20;;;;;;;;;;5091954;28;20048;-66
2022/07/12 02:21:50;;;;;;;4.97;4.50;;;;;;;;;;5091785;28;20063;-65
2022/07/12 02:24:16;;;;;;;4.30;4.00;;;;;;;;;;5089608;28;20048;-67
2022/07/12 02:26:43;;;;;;;4.60;4.20;;;;;;;;;;5090570;28;20063;-66
2022/07/12 02:29:10;;;;;;;9.95;4.30;;;;;;;;;;5091143;28;20140;-66
2022/07/12 02:31:36;;;;;;;4.80;4.35;;;;;;;;;;5091136;28;20135;-65
2022/07/12 02:34:03;;;;;;;4.53;4.13;;;;;;;;;;5090704;28;20549;-66
2022/07/12 02:36:30;;;;;;;4.82;4.43;;;;;;;;;;5088375;28;20051;-66
2022/07/12 02:38:56;;;;;;;5.25;4.75;;;;;;;;;;5076367;28;20049;-65
2022/07/12 02:41:22;;;;;;;5.00;4.60;;;;;;;;;;5090577;28;20052;-67
2022/07/12 02:43:49;;;;;;;4.93;4.45;;;;;;;;;;5090250;28;20128;-66
2022/07/12 02:46:15;;;;;;;5.93;5.13;;;;;;;;;;5091013;28;20131;-68
2022/07/12 02:48:42;;;;;;;4.82;4.43;;;;;;;;;;5090929;28;20057;-66
2022/07/12 02:51:09;;;;;;;5.20;4.70;;;;;;;;;;5087552;28;20057;-65
2022/07/12 02:53:36;;;;;;;5.00;4.60;;;;;;;;;;5087332;28;20052;-66
2022/07/12 02:56:06;;;;;;;5.03;4.55;;;;;;;;;;5090759;28;20095;-66
2022/07/12 02:58:33;;;;;;;5.18;4.68;;;;;;;;;;5091773;28;20104;-66
2022/07/12 03:01:00;;;;;;;7.90;4.68;;;;;;;;;;5082984;28;20140;-66
2022/07/12 03:03:26;;;;;;;5.15;4.68;;;;;;;;;;5090655;28;20044;-66
2022/07/12 03:05:53;;;;;;;6.57;4.88;;;;;;;;;;5091097;28;20057;-67
2022/07/12 03:08:19;;;;;;;6.18;4.63;;;;;;;;;;5090522;28;20045;-67
2022/07/12 03:10:46;;;;;;;6.63;4.93;;;;;;;;;;5089902;28;20499;-66
2022/07/12 03:13:12;;;;;;;4.75;4.35;;;;;;;;;;5091431;28;20048;-66
2022/07/12 03:15:39;;;;;;;4.53;4.13;;;;;;;;;;5093966;28;20670;-66
2022/07/12 03:18:05;;;;;;;4.55;4.15;;;;;;;;;;5090391;28;20052;-65
2022/07/12 03:20:32;;;;;;;5.15;4.65;;;;;;;;;;5089983;28;20052;-67
2022/07/12 03:22:58;;;;;;;9.35;4.22;;;;;;;;;;5088399;28;20051;-66
2022/07/12 03:25:24;;;;;;;5.20;3.85;;;;;;;;;;5083156;28;20057;-66
2022/07/12 03:27:51;;;;;;;4.05;3.75;;;;;;;;;;5083122;28;20045;-66
2022/07/12 03:30:17;;;;;;;4.88;4.13;;;;;;;;;;5089921;28;20135;-66
2022/07/12 03:32:44;;;;;;;4.63;4.22;;;;;;;;;;5094230;28;20076;-66
2022/07/12 03:35:10;;;;;;;4.38;3.97;;;;;;;;;;5101592;28;20068;-66
2022/07/12 03:37:42;;;;;;;4.93;4.53;;;;;;;;;;5094557;27;20059;-65
2022/07/12 03:40:09;;;;;;;4.28;3.88;;;;;;;;;;5090003;28;20986;-66
2022/07/12 03:42:35;;;;;;;4.75;4.35;;;;;;;;;;5087356;28;20106;-66
2022/07/12 03:45:02;;;;;;;5.93;4.30;;;;;;;;;;5091790;28;20052;-66
2022/07/12 03:47:28;;;;;;;5.65;4.18;;;;;;;;;;5100296;28;20060;-66
2022/07/12 03:49:57;;;;;;;6.05;4.70;;;;;;;;;;5093569;28;20049;-66
2022/07/12 03:52:24;;;;;;;5.13;4.55;;;;;;;;;;5094038;28;20067;-66
2022/07/12 03:54:50;;;;;;;6.10;4.65;;;;;;;;;;5094173;28;20140;-67
2022/07/12 03:57:17;;;;;;;5.15;4.28;;;;;;;;;;5103145;28;20087;-66
2022/07/12 03:59:44;;;;;;;4.82;4.43;;;;;;;;;;5096396;27;20052;-66
2022/07/12 04:02:10;;;;;;;5.63;4.50;;;;;;;;;;5095959;28;20075;-67
2022/07/12 04:04:37;;;;;;;5.57;4.93;;;;;;;;;;5092659;28;20144;-66
2022/07/12 04:07:04;;;;;;;7.15;5.03;;;;;;;;;;5090464;28;20053;-65
2022/07/12 04:09:30;;;;;;;6.05;5.15;;;;;;;;;;5093156;28;20500;-66
2022/07/12 04:11:57;;;;;;;4.90;4.50;;;;;;;;;;5091862;28;20052;-65
2022/07/12 04:14:23;;;;;;;5.30;4.57;;;;;;;;;;5095968;28;20052;-66
2022/07/12 04:16:50;;;;;;;5.10;4.70;;;;;;;;;;5093204;28;20131;-66
2022/07/12 04:19:16;;;;;;;7.68;5.18;;;;;;;;;;5092283;28;20139;-66
2022/07/12 04:21:42;;;;;;;5.15;4.70;;;;;;;;;;5092994;28;20053;-67
2022/07/12 04:24:08;;;;;;;5.25;4.75;;;;;;;;;;5093086;28;20065;-66
2022/07/12 04:26:35;;;;;;;6.10;5.53;;;;;;;;;;5093084;28;20052;-66
2022/07/12 04:29:01;;;;;;;6.03;5.28;;;;;;;;;;5092684;28;20143;-67
2022/07/12 04:31:28;;;;;;;5.65;4.93;;;;;;;;;;5093125;28;20053;-66
2022/07/12 04:33:54;;;;;;;7.43;5.38;;;;;;;;;;5096106;28;20072;-67
2022/07/12 04:36:20;;;;;;;6.25;5.32;;;;;;;;;;5097160;28;20054;-66
2022/07/12 04:38:47;;;;;;;5.82;5.25;;;;;;;;;;5095484;27;20063;-67
2022/07/12 04:41:13;;;;;;;5.70;5.20;;;;;;;;;;5093258;28;20052;-66
2022/07/12 04:43:39;;;;;;;6.15;5.55;;;;;;;;;;5093592;28;20048;-66
2022/07/12 04:46:09;;;;;;;6.32;5.40;;;;;;;;;;5091626;28;20052;-66
2022/07/12 04:48:36;;;;;;;5.47;4.97;;;;;;;;;;5086440;28;20126;-66
2022/07/12 04:51:02;;;;;;;6.63;5.75;;;;;;;;;;5097680;28;20086;-66
2022/07/12 04:53:30;;;;;;;7.10;5.50;;;;;;;;;;5091575;27;20054;-65
2022/07/12 04:55:56;;;;;;;6.30;5.70;;;;;;;;;;5083868;28;20048;-65
2022/07/12 04:58:23;;;;;;;6.65;5.60;;;;;;;;;;5089631;28;20067;-65
2022/07/12 05:00:50;;;;;;;8.00;6.50;;;;;;;;;;5090707;28;20075;-66
2022/07/12 05:03:16;;;;;;;6.50;5.65;;;;;;;;;;5091224;28;20052;-66
2022/07/12 05:05:42;;;;;;;7.03;6.32;;;;;;;;;;5092019;28;20135;-65
2022/07/12 05:08:09;;;;;;;10.05;6.10;;;;;;;;;;5092308;28;20052;-65
2022/07/12 05:10:35;;;;;;;6.95;6.32;;;;;;;;;;5091988;28;20048;-65
2022/07/12 05:13:02;;;;;;;7.05;6.25;;;;;;;;;;5090886;28;20135;-66
2022/07/12 05:15:28;;;;;;;6.43;5.82;;;;;;;;;;5092318;28;20514;-65
2022/07/12 05:17:54;;;;;;;6.93;6.22;;;;;;;;;;5092722;28;20151;-66
2022/07/12 05:20:21;;;;;;;9.90;6.43;;;;;;;;;;5090237;28;20108;-66
2022/07/12 05:22:47;;;;;;;8.20;7.40;;;;;;;;;;5090669;28;20590;-66
2022/07/12 05:25:13;;;;;;;14.57;6.35;;;;;;;;;;5091380;28;20060;-65
2022/07/12 05:27:40;;;;;;;7.70;6.82;;;;;;;;;;5091441;28;20086;-65
2022/07/12 05:30:06;;;;;;;6.88;6.22;;;;;;;;;;5089007;28;20415;-65
2022/07/12 05:32:32;;;;;;;6.82;6.05;;;;;;;;;;5091725;28;20084;-66
2022/07/12 05:34:59;;;;;;;7.82;6.45;;;;;;;;;;5092639;28;20044;-66
2022/07/12 05:37:25;;;;;;;7.20;6.43;;;;;;;;;;5091710;28;20144;-66
2022/07/12 05:39:52;;;;;;;9.43;8.50;;;;;;;;;;5087141;28;20053;-65
2022/07/12 05:42:18;;;;;;;8.70;7.90;;;;;;;;;;5090431;28;20048;-65
2022/07/12 05:44:45;;;;;;;9.32;8.43;;;;;;;;;;5091695;28;20048;-65
2022/07/12 05:47:12;;;;;;;10.43;7.70;;;;;;;;;;5085458;28;20139;-64
2022/07/12 05:49:38;;;;;;;11.13;7.47;;;;;;;;;;5086504;28;20054;-66
2022/07/12 05:54:53;;;;;;;6.93;6.22;;;;;;;;;;5074934;28;20059;-65
2022/07/12 05:57:20;;;;;;;10.52;8.45;;;;;;;;;;5086598;28;20143;-65
2022/07/12 05:59:46;;;;;;;8.45;7.03;;;;;;;;;;5088793;28;20048;-65
2022/07/12 06:02:14;;;;;;;7.70;6.90;;;;;;;;;;5087123;28;20499;-67
2022/07/12 06:04:40;;;;;;;7.75;7.05;;;;;;;;;;5091049;28;20110;-68
2022/07/12 06:07:09;;;;;;;8.55;7.75;;;;;;;;;;5090415;28;20051;-63
2022/07/12 06:09:36;;;;;;;7.72;6.95;;;;;;;;;;5091473;28;20484;-63
2022/07/12 06:12:03;;;;;;;7.80;6.82;;;;;;;;;;5090779;28;20056;-63
2022/07/12 06:14:29;;;;;;;9.05;6.72;;;;;;;;;;5090584;27;20135;-65
2022/07/12 06:16:56;;;;;;;7.63;6.10;;;;;;;;;;5090834;28;20063;-64
2022/07/12 06:19:23;;;;;;;6.50;5.90;;;;;;;;;;5091654;28;20459;-64
2022/07/12 06:21:49;;;;;;;41.92;15.70;;;;;;;;;;5089988;28;20130;-66
2022/07/12 06:24:16;;;;;;;10.43;6.82;;;;;;;;;;5088821;28;20078;-66
2022/07/12 06:26:42;;;;;;;7.45;6.07;;;;;;;;;;5090392;28;20504;-65
2022/07/12 06:29:09;;;;;;;5.20;4.75;;;;;;;;;;5090395;28;20080;-65
2022/07/12 06:31:36;;;;;;;4.63;4.20;;;;;;;;;;5085758;28;20151;-66
2022/07/12 06:34:02;;;;;;;5.53;5.03;;;;;;;;;;5089846;28;20136;-65
2022/07/12 06:36:29;;;;;;;5.43;4.93;;;;;;;;;;5089564;28;20095;-65
2022/07/12 06:38:55;;;;;;;4.97;4.45;;;;;;;;;;5090211;28;20048;-65
2022/07/12 06:41:21;;;;;;;6.45;4.40;;;;;;;;;;5087297;28;20049;-64
2022/07/12 06:43:48;;;;;;;7.57;4.07;;;;;;;;;;5089086;28;20075;-64
2022/07/12 06:46:14;;;;;;;4.85;4.13;;;;;;;;;;5090916;28;20071;-65
2022/07/12 06:48:41;;;;;;;5.40;4.40;;;;;;;;;;5085106;28;20147;-64
2022/07/12 06:51:07;;;;;;;4.90;4.40;;;;;;;;;;5086930;28;20052;-64
2022/07/12 06:53:33;;;;;;;4.60;3.92;;;;;;;;;;5081895;28;20132;-64
2022/07/12 06:56:01;;;;;;;4.65;4.25;;;;;;;;;;5098818;28;20163;-64
2022/07/12 06:58:28;;;;;;;5.40;4.50;;;;;;;;;;5089292;27;20136;-64
2022/07/12 07:00:54;;;;;;;6.82;4.10;;;;;;;;;;5080766;28;20496;-64
2022/07/12 07:03:20;;;;;;;4.72;4.32;;;;;;;;;;5076173;28;20061;-64
2022/07/12 07:05:47;;;;;;;6.63;4.47;;;;;;;;;;5089515;28;20051;-64
2022/07/12 07:08:13;;;;;;;4.30;3.88;;;;;;;;;;5090803;28;20057;-64
2022/07/12 07:10:39;;;;;;;5.00;4.07;;;;;;;;;;5089636;28;20053;-64
2022/07/12 07:13:07;;;;;;;5.05;4.05;;;;;;;;;;5089335;28;20138;-65
2022/07/12 07:15:33;;;;;;;6.65;3.90;;;;;;;;;;5089231;28;20087;-65
2022/07/12 07:18:00;;;;;;;4.57;3.92;;;;;;;;;;5077526;28;20052;-65
2022/07/12 07:20:27;;;;;;;4.20;3.90;;;;;;;;;;5078954;28;20059;-67
2022/07/12 07:22:53;;;;;;;4.28;3.88;;;;;;;;;;5091921;28;20056;-65
2022/07/12 07:25:20;;;;;;;4.05;3.63;;;;;;;;;;5087861;28;20454;-64
2022/07/12 07:27:47;;;;;;;3.75;3.38;;;;;;;;;;5093186;28;20143;-64
2022/07/12 07:32:58;;;;;;;4.27;3.60;;;;;;;;;;5094617;28;20048;-65
2022/07/12 07:35:29;;;;;;;6.03;3.72;;;;;;;;;;5106485;28;20122;-65
2022/07/12 07:37:55;;;;;;;4.63;3.33;;;;;;;;;;5105817;28;20048;-64
2022/07/12 07:40:22;;;;;;;6.53;3.60;;;;;;;;;;5094569;27;20079;-65
2022/07/12 07:42:48;;;;;;;9.00;3.42;;;;;;;;;;5091630;28;20052;-65
2022/07/12 07:45:15;;;;;;;4.60;3.67;;;;;;;;;;5093611;28;20052;-66
2022/07/12 07:47:45;;;;;;;3.72;2.47;;;;;;;;;;5089311;28;20060;-65
2022/07/12 07:50:31;;;;;;;5.32;3.20;;;;;;;;;;5094059;27;20044;-63
2022/07/12 07:52:58;;;;;;;4.88;3.17;;;;;;;;;;5083471;28;20053;-66
2022/07/12 07:55:26;;;;;;;4.95;3.17;;;;;;;;;;5086400;28;20874;-67
2022/07/12 07:57:53;;;;;;;3.63;3.15;;;;;;;;;;5089020;28;20059;-64
2022/07/12 08:00:20;;;;;;;2.90;2.70;;;;;;;;;;5093213;28;20885;-64
2022/07/12 08:02:46;;;;;;;8.02;3.78;;;;;;;;;;5093958;28;20048;-66
2022/07/12 08:05:12;;;;;;;3.50;2.95;;;;;;;;;;5091317;28;20489;-67
2022/07/12 08:07:39;;;;;;;3.85;3.00;;;;;;;;;;5093347;28;20503;-66
2022/07/12 08:10:21;;;;;;;3.65;2.80;;;;;;;;;;5091436;28;20056;-66
2022/07/12 08:12:47;;;;;;;3.13;2.65;;;;;;;;;;5072356;28;20055;-65
2022/07/12 08:15:15;;;;;;;6.57;2.40;;;;;;;;;;5083540;28;20076;-65
2022/07/12 08:17:41;;;;;;;5.57;2.90;;;;;;;;;;5091635;28;20147;-64
2022/07/12 08:20:17;;;;;;;5.18;2.70;;;;;;;;;;5089893;28;20064;-64
2022/07/12 08:23:04;;;;;;;7.70;2.55;;;;;;;;;;5096728;28;20059;-65
2022/07/12 08:25:31;;;;;;;5.80;2.40;;;;;;;;;;5082138;28;20415;-64
2022/07/12 08:27:57;;;;;;;3.50;2.50;;;;;;;;;;5086727;28;20084;-65
2022/07/12 08:30:23;;;;;;;6.75;2.90;;;;;;;;;;5099061;28;20579;-65
2022/07/12 08:32:50;;;;;;;4.90;2.67;;;;;;;;;;5093491;28;20052;-67
2022/07/12 08:35:16;;;;;;;4.82;2.40;;;;;;;;;;5095342;28;20060;-64
2022/07/12 08:37:43;;;;;;;4.68;2.72;;;;;;;;;;5091610;28;20149;-65
2022/07/12 08:40:09;;;;;;;2.75;2.55;;;;;;;;;;5092640;28;20450;-64
2022/07/12 08:42:40;;;;;;;3.80;2.40;;;;;;;;;;5091623;28;20148;-65
2022/07/12 08:45:06;;;;;;;4.20;2.50;;;;;;;;;;5093092;28;20841;-65
2022/07/12 08:47:32;;;;;;;2.38;2.10;;;;;;;;;;5092139;28;20041;-66
2022/07/12 08:50:16;;;;;;;4.07;2.25;;;;;;;;;;5092230;28;20048;-66
2022/07/12 08:52:48;;;;;;;2.47;2.03;;;;;;;;;;5091699;28;20577;-66
2022/07/12 08:55:16;;;;;;;2.97;1.70;;;;;;;;;;5092936;28;20048;-66
2022/07/12 08:57:43;;;;;;;2.78;1.58;;;;;;;;;;5090041;28;20103;-65
2022/07/12 09:00:10;;;;;;;3.42;2.22;;;;;;;;;;5092829;28;20059;-65
2022/07/12 09:02:55;;;;;;;2.70;1.75;;;;;;;;;;5084215;28;20136;-66
2022/07/12 09:05:22;;;;;;;4.05;2.20;;;;;;;;;;5073150;28;20133;-68
2022/07/12 09:07:49;;;;;;;1.70;1.50;;;;;;;;;;5087348;28;20206;-66
2022/07/12 09:10:17;;;;;;;1.85;1.50;;;;;;;;;;5091624;28;20053;-65
2022/07/12 09:12:44;;;;;;;1.80;1.70;;;;;;;;;;5091364;28;20143;-65
2022/07/12 09:15:17;;;;;;;2.53;2.10;;;;;;;;;;5080693;28;20127;-67
2022/07/12 09:17:46;;;;;;;3.10;1.90;;;;;;;;;;5090774;28;20098;-67
2022/07/12 09:20:14;;;;;;;2.58;2.08;;;;;;;;;;5084643;28;20056;-67
2022/07/12 09:23:02;;;;;;;7.00;2.45;;;;;;;;;;5092269;28;20057;-68
2022/07/12 09:25:29;;;;;;;4.20;1.95;;;;;;;;;;5092793;28;20495;-67
2022/07/12 09:27:57;;;;;;;3.53;1.77;;;;;;;;;;5091751;28;20048;-67
2022/07/12 09:30:24;;;;;;;5.20;1.83;;;;;;;;;;5090772;28;20048;-68
2022/07/12 09:36:06;;;;;;;2.85;2.17;;;;;;;;;;5088126;28;20161;-65
2022/07/12 09:38:36;;;;;;;3.05;1.60;;;;;;;;;;5091492;28;20048;-66
2022/07/12 09:41:03;;;;;;;3.78;1.80;;;;;;;;;;5091152;28;20076;-66
2022/07/12 09:43:30;;;;;;;2.10;1.90;;;;;;;;;;5088152;28;20162;-68
2022/07/12 09:45:57;;;;;;;3.38;2.00;;;;;;;;;;5090803;28;20059;-66
2022/07/12 09:48:25;;;;;;;2.58;2.15;;;;;;;;;;5088750;28;20056;-67
2022/07/12 09:50:51;;;;;;;5.22;2.60;;;;;;;;;;5091424;28;20171;-68
2022/07/12 09:53:22;;;;;;;3.03;2.30;;;;;;;;;;5090999;28;20062;-68
2022/07/12 09:55:51;;;;;;;4.18;2.10;;;;;;;;;;5090864;28;20106;-66
2022/07/12 09:58:30;;;;;;;1.90;1.67;;;;;;;;;;5091990;28;20053;-67
2022/07/12 10:00:59;;;;;;;1.67;1.58;;;;;;;;;;5090403;28;20048;-67
2022/07/12 10:03:29;;;;;;;1.92;1.52;;;;;;;;;;5091921;28;20053;-67
2022/07/12 10:05:55;;;;;;;2.13;1.85;;;;;;;;;;5088671;28;20053;-67
2022/07/12 10:08:29;;;;;;;1.52;1.42;;;;;;;;;;5090831;28;20126;-66
2022/07/12 10:10:55;;;;;;;2.70;1.27;;;;;;;;;;5099110;28;20476;-66
2022/07/12 10:13:22;;;;;;;4.28;1.52;;;;;;;;;;5093770;28;20136;-65
2022/07/12 10:15:49;;;;;;;2.05;1.30;;;;;;;;;;5100455;28;20531;-65
2022/07/12 10:18:16;;;;;;;5.15;1.33;;;;;;;;;;5091580;28;20411;-65
2022/07/12 10:20:44;;;;;;;3.22;1.52;;;;;;;;;;5091524;28;20522;-65
2022/07/12 10:23:19;;;;;;;1.70;1.60;;;;;;;;;;5091176;28;20139;-65
2022/07/12 10:25:48;;;;;;;1.60;1.50;;;;;;;;;;5091230;28;20057;-65
2022/07/12 10:28:14;;;;;;;1.40;1.23;;;;;;;;;;5091413;28;20059;-64
2022/07/12 10:30:49;;;;;;;1.85;1.30;;;;;;;;;;5091882;28;20048;-65
2022/07/12 10:33:15;;;;;;;;;;;;;;;;;;5092087;28;21007;-65
2022/07/12 10:35:57;;;;;;;4.43;2.20;;;;;;;;;;5090835;28;47075;-66
2022/07/12 10:38:25;;;;;;;8.18;2.10;;;;;;;;;;5091189;28;20518;-66
2022/07/12 10:40:53;;;;;;;10.13;2.05;;;;;;;;;;5090580;28;20056;-65
2022/07/12 10:43:21;;;;;;;10.60;1.95;;;;;;;;;;5090879;28;20053;-65
2022/07/12 10:45:48;;;;;;;8.63;1.60;;;;;;;;;;5090750;28;20076;-64
2022/07/12 10:48:14;;;;;;;11.30;2.25;;;;;;;;;;5090701;28;20172;-65
2022/07/12 10:51:00;;;;;;;7.85;1.80;;;;;;;;;;5090510;28;20049;-65
2022/07/12 10:53:40;;;;;;;8.63;1.95;;;;;;;;;;5091998;28;20087;-67
2022/07/12 10:56:20;;;;;;;9.52;2.03;;;;;;;;;;5090528;28;20044;-68
2022/07/12 10:58:56;;;;;;;4.10;1.75;;;;;;;;;;5094041;28;20147;-68
2022/07/12 11:01:24;;;;;;;11.00;2.00;;;;;;;;;;5093831;28;20060;-67
2022/07/12 11:03:55;;;;;;;6.65;2.55;;;;;;;;;;5087516;27;20136;-67
2022/07/12 11:06:23;;;;;;;2.67;1.90;;;;;;;;;;5094711;28;20056;-68
2022/07/12 11:08:59;;;;;;;3.55;1.88;;;;;;;;;;5094130;28;20053;-66
2022/07/12 11:11:30;;;;;;;7.65;2.50;;;;;;;;;;5091477;28;20246;-67
2022/07/12 11:13:57;;;;;;;2.15;1.92;;;;;;;;;;5093415;28;20049;-68
2022/07/12 11:16:24;;;;;;;2.35;1.92;;;;;;;;;;5093518;28;20044;-65
2022/07/12 11:18:52;;;;;;;3.58;1.83;;;;;;;;;;5096338;28;20059;-65
2022/07/12 11:21:19;;;;;;;2.35;2.00;;;;;;;;;;5094240;28;20091;-64
2022/07/12 11:23:45;;;;;;;3.15;1.85;;;;;;;;;;5104147;28;20171;-64
2022/07/12 11:26:13;;;;;;;1.85;1.50;;;;;;;;;;5094028;27;20136;-64
2022/07/12 11:28:40;;;;;;;1.70;1.25;;;;;;;;;;5093131;28;20144;-65
2022/07/12 11:31:11;;;;;;;2.92;1.40;;;;;;;;;;5095092;28;20052;-66
2022/07/12 11:33:42;;;;;;;4.28;1.35;;;;;;;;;;5093479;28;20160;-67
2022/07/12 11:36:12;;;;;;;1.77;1.50;;;;;;;;;;5079107;28;20045;-66
2022/07/12 11:38:40;;;;;;;2.67;1.77;;;;;;;;;;5083531;28;20144;-66
2022/07/12 11:41:10;;;;;;;1.45;1.33;;;;;;;;;;5092609;28;20143;-64
2022/07/12 11:43:37;;;;;;;2.70;1.33;;;;;;;;;;5092878;27;20056;-65
2022/07/12 11:46:04;;;;;;;4.43;1.98;;;;;;;;;;5094109;28;20048;-65
2022/07/12 11:48:34;;;;;;;2.67;1.58;;;;;;;;;;5093850;28;20559;-65
2022/07/12 11:51:05;;;;;;;3.63;1.60;;;;;;;;;;5093523;28;20091;-67
2022/07/12 11:53:32;;;;;;;1.92;1.80;;;;;;;;;;5093223;28;20198;-65
2022/07/12 11:55:59;;;;;;;2.97;2.15;;;;;;;;;;5093439;28;20106;-69
2022/07/12 11:58:26;;;;;;;2.53;1.60;;;;;;;;;;5087724;28;20049;-68
2022/07/12 12:00:53;;;;;;;4.72;1.83;;;;;;;;;;5102285;28;20052;-67
2022/07/12 12:03:20;;;;;;;1.70;1.52;;;;;;;;;;5093542;28;20136;-68
2022/07/12 12:05:47;;;;;;;7.75;2.40;;;;;;;;;;5092551;28;20175;-66
2022/07/12 12:08:14;;;;;;;3.10;1.67;;;;;;;;;;5093539;28;20151;-66
2022/07/12 12:10:41;;;;;;;2.13;1.90;;;;;;;;;;5121344;27;20048;-66
2022/07/12 12:13:15;;;;;;;1.73;1.52;;;;;;;;;;5089604;28;20058;-65
2022/07/12 12:15:54;;;;;;;4.20;1.65;;;;;;;;;;5099132;27;21009;-66
2022/07/12 12:18:28;;;;;;;5.40;1.52;;;;;;;;;;5093463;28;20052;-65
2022/07/12 12:21:02;;;;;;;4.47;1.80;;;;;;;;;;5093882;28;20061;-64
2022/07/12 12:23:28;;;;;;;6.10;2.00;;;;;;;;;;5088911;28;20044;-64
2022/07/12 12:26:14;;;;;;;1.50;1.40;;;;;;;;;;5096776;28;20139;-64
2022/07/12 12:28:49;;;;;;;2.10;1.70;;;;;;;;;;5123710;27;20056;-66
2022/07/12 12:31:20;;;;;;;11.93;2.22;;;;;;;;;;5088377;28;20420;-66
2022/07/12 12:33:51;;;;;;;6.07;1.63;;;;;;;;;;5093281;28;20404;-66
2022/07/12 12:36:18;;;;;;;3.08;1.75;;;;;;;;;;5093276;28;20048;-67
2022/07/12 12:38:44;;;;;;;4.78;1.80;;;;;;;;;;5093300;28;20568;-67
2022/07/12 12:41:11;;;;;;;2.75;1.50;;;;;;;;;;5092783;28;20196;-65
2022/07/12 12:43:38;;;;;;;3.47;1.90;;;;;;;;;;5095534;28;20170;-63
2022/07/12 12:46:04;;;;;;;6.18;1.77;;;;;;;;;;5090665;28;20059;-66
2022/07/12 12:48:32;;;;;;;3.42;1.63;;;;;;;;;;5098447;28;20084;-68
2022/07/12 12:51:08;;;;;;;1.52;1.42;;;;;;;;;;5099409;28;20049;-67
2022/07/12 12:53:37;;;;;;;3.08;1.20;;;;;;;;;;5088991;28;20143;-66
2022/07/12 12:56:05;;;;;;;1.70;1.15;;;;;;;;;;5088427;28;20059;-68
2022/07/12 12:58:31;;;;;;;1.30;1.20;;;;;;;;;;5092291;28;20052;-65
2022/07/12 13:00:58;;;;;;;3.30;1.58;;;;;;;;;;5090675;28;20063;-67
2022/07/12 13:03:24;;;;;;;3.42;1.40;;;;;;;;;;5086961;28;20048;-65
2022/07/12 13:05:51;;;;;;;4.32;1.60;;;;;;;;;;5091892;28;20058;-67
2022/07/12 13:08:17;;;;;;;2.03;1.48;;;;;;;;;;5084746;28;20059;-67
2022/07/12 13:10:44;;;;;;;5.57;1.30;;;;;;;;;;5092644;28;20045;-68
2022/07/12 13:13:12;;;;;;;3.55;1.30;;;;;;;;;;5090761;28;20074;-68
2022/07/12 13:15:44;;;;;;;2.45;1.30;;;;;;;;;;5094998;28;20076;-67
2022/07/12 13:18:10;;;;;;;4.82;1.50;;;;;;;;;;5100475;28;20145;-67
2022/07/12 13:20:37;;;;;;;4.97;1.40;;;;;;;;;;5086690;28;20049;-69
2022/07/12 13:23:03;;;;;;;3.40;1.60;;;;;;;;;;5091086;28;20500;-68
2022/07/12 13:25:30;;;;;;;2.85;1.58;;;;;;;;;;5091792;28;20092;-68
2022/07/12 13:27:57;;;;;;;5.93;1.48;;;;;;;;;;5090977;28;20076;-68
2022/07/12 13:30:23;;;;;;;8.05;1.42;;;;;;;;;;5091812;28;20053;-68
2022/07/12 13:32:50;;;;;;;2.55;1.80;;;;;;;;;;5090646;28;20095;-67
2022/07/12 13:35:17;;;;;;;7.50;1.88;;;;;;;;;;5091752;28;20056;-66
2022/07/12 13:37:43;;;;;;;2.30;1.70;;;;;;;;;;5092647;28;20044;-68
2022/07/12 13:40:16;;;;;;;3.70;1.45;;;;;;;;;;5092359;28;20058;-65
2022/07/12 13:42:49;;;;;;;4.75;1.70;;;;;;;;;;5090582;28;20055;-64
2022/07/12 13:45:17;;;;;;;4.80;1.90;;;;;;;;;;5072913;28;20057;-65
2022/07/12 13:47:45;;;;;;;2.72;1.35;;;;;;;;;;5090815;28;20052;-64
2022/07/12 13:50:12;;;;;;;3.42;1.60;;;;;;;;;;5091250;28;20056;-65
2022/07/12 13:52:40;;;;;;;1.83;1.63;;;;;;;;;;5091949;28;20104;-64
2022/07/12 13:55:07;;;;;;;2.42;1.63;;;;;;;;;;5092051;28;20053;-66
2022/07/12 13:57:34;;;;;;;1.63;1.52;;;;;;;;;;5091400;28;20061;-66
2022/07/12 14:00:01;;;;;;;1.92;1.60;;;;;;;;;;5092110;28;20508;-66
2022/07/12 14:02:27;;;;;;;2.92;1.65;;;;;;;;;;5091578;28;20053;-67
2022/07/12 14:04:54;;;;;;;1.90;1.30;;;;;;;;;;5091715;28;20067;-66
2022/07/12 14:07:20;;;;;;;6.13;1.38;;;;;;;;;;5092336;28;20056;-66
2022/07/12 14:09:47;;;;;;;1.30;1.20;;;;;;;;;;5091677;28;20136;-66
2022/07/12 14:12:14;;;;;;;1.63;1.48;;;;;;;;;;5090032;28;20042;-67
2022/07/12 14:17:26;;;;;;;;;;;;;;;;;;5091918;28;20045;-66
2022/07/12 14:19:52;;;;;;;3.15;1.80;;;;;;;;;;5090531;28;43459;-65
2022/07/12 14:22:19;;;;;;;4.45;1.67;;;;;;;;;;5091469;28;20079;-66
2022/07/12 14:24:46;;;;;;;2.20;1.45;;;;;;;;;;5091233;28;20080;-66
2022/07/12 14:27:12;;;;;;;6.03;1.98;;;;;;;;;;5090232;28;20045;-67
2022/07/12 14:29:38;;;;;;;2.40;1.67;;;;;;;;;;5091236;28;20159;-67
2022/07/12 14:32:05;;;;;;;6.03;1.73;;;;;;;;;;5091650;28;20091;-65
2022/07/12 14:34:33;;;;;;;5.32;1.92;;;;;;;;;;5090975;28;20136;-66
2022/07/12 14:37:00;;;;;;;4.80;1.83;;;;;;;;;;5091936;28;20055;-66
2022/07/12 14:39:26;;;;;;;2.53;1.50;;;;;;;;;;5092235;28;20515;-67
2022/07/12 14:41:53;;;;;;;6.72;1.90;;;;;;;;;;5090392;28;20054;-68
2022/07/12 14:44:19;;;;;;;2.30;1.52;;;;;;;;;;5091525;28;20048;-66
2022/07/12 14:46:46;;;;;;;2.40;1.65;;;;;;;;;;5091058;28;20059;-67
2022/07/12 14:49:12;;;;;;;2.40;1.88;;;;;;;;;;5090502;28;20511;-66
2022/07/12 14:51:39;;;;;;;1.85;1.75;;;;;;;;;;5090913;28;20053;-67
2022/07/12 14:54:05;;;;;;;4.00;2.28;;;;;;;;;;5090767;28;20053;-68
2022/07/12 14:56:31;;;;;;;1.95;1.80;;;;;;;;;;5090445;28;20143;-66